Time;durP1;ratioP1;P1;durP2;ratioP2;P2;SDS_P1;SDS_P2;PMS_P1;PMS_P2;Temp;Humidity;BMP_temperature;BMP_pressure;BME280_temperature;BME280_humidity;BME280_pressure;Samples;Min_cycle;Max_cycle;Signal;HPM_P1;HPM_P2
2021/06/21 00:01:59;;;;;;;0.20;0.20;;;;;;;;;;5045659;28;20457;-64
2021/06/21 00:04:25;;;;;;;0.20;0.20;;;;;;;;;;5061674;28;20406;-63
2021/06/21 00:06:51;;;;;;;0.30;0.30;;;;;;;;;;5063046;28;20414;-63
2021/06/21 00:09:17;;;;;;;0.30;0.30;;;;;;;;;;5063287;28;20899;-63
2021/06/21 00:11:43;;;;;;;0.30;0.30;;;;;;;;;;5061582;28;21294;-64
2021/06/21 00:14:09;;;;;;;0.20;0.20;;;;;;;;;;5045162;28;20497;-61
2021/06/21 00:16:38;;;;;;;0.20;0.20;;;;;;;;;;5062889;28;20888;-64
2021/06/21 00:19:04;;;;;;;0.30;0.30;;;;;;;;;;5061434;28;20405;-63
2021/06/21 00:21:30;;;;;;;0.20;0.20;;;;;;;;;;5062840;28;20417;-64
2021/06/21 00:23:56;;;;;;;0.20;0.20;;;;;;;;;;5062950;28;20409;-64
2021/06/21 00:26:23;;;;;;;0.20;0.20;;;;;;;;;;5061291;28;20504;-63
2021/06/21 00:28:49;;;;;;;0.20;0.20;;;;;;;;;;5028419;28;20464;-63
2021/06/21 00:31:15;;;;;;;0.30;0.30;;;;;;;;;;5037403;28;20417;-63
2021/06/21 00:33:41;;;;;;;0.20;0.20;;;;;;;;;;5052658;28;20454;-63
2021/06/21 00:36:07;;;;;;;0.20;0.20;;;;;;;;;;5052604;28;20406;-64
2021/06/21 00:38:33;;;;;;;0.20;0.20;;;;;;;;;;5052431;28;20401;-63
2021/06/21 00:40:59;;;;;;;0.20;0.20;;;;;;;;;;5052453;28;20446;-63
2021/06/21 00:43:25;;;;;;;0.20;0.20;;;;;;;;;;5052478;28;20828;-63
2021/06/21 00:45:51;;;;;;;0.30;0.30;;;;;;;;;;5052389;28;20418;-63
2021/06/21 00:48:17;;;;;;;0.20;0.20;;;;;;;;;;5052358;28;20865;-63
2021/06/21 00:50:43;;;;;;;0.30;0.30;;;;;;;;;;5051964;28;20442;-63
2021/06/21 00:53:09;;;;;;;0.20;0.20;;;;;;;;;;5052241;28;20446;-63
2021/06/21 00:55:35;;;;;;;0.20;0.20;;;;;;;;;;5052324;28;20402;-63
2021/06/21 00:58:01;;;;;;;0.30;0.30;;;;;;;;;;5052197;28;20405;-62
2021/06/21 01:00:28;;;;;;;0.30;0.30;;;;;;;;;;5051882;28;20471;-63
2021/06/21 01:02:54;;;;;;;0.20;0.20;;;;;;;;;;5052185;28;20500;-63
2021/06/21 01:05:22;;;;;;;0.20;0.20;;;;;;;;;;5052108;28;20385;-63
2021/06/21 01:07:49;;;;;;;0.20;0.20;;;;;;;;;;5051990;28;20890;-63
2021/06/21 01:10:16;;;;;;;0.20;0.20;;;;;;;;;;5050928;28;20404;-64
2021/06/21 01:12:53;;;;;;;0.20;0.20;;;;;;;;;;5051798;28;20411;-63
2021/06/21 01:15:21;;;;;;;0.20;0.20;;;;;;;;;;5051992;28;20406;-63
2021/06/21 01:17:51;;;;;;;0.20;0.20;;;;;;;;;;5051818;28;20440;-63
2021/06/21 01:20:23;;;;;;;0.30;0.30;;;;;;;;;;5051210;28;20848;-63
2021/06/21 01:22:52;;;;;;;0.20;0.20;;;;;;;;;;5051776;28;20385;-63
2021/06/21 01:25:29;;;;;;;0.20;0.20;;;;;;;;;;5051776;28;20502;-63
2021/06/21 01:28:04;;;;;;;0.20;0.20;;;;;;;;;;5051657;28;20986;-62
2021/06/21 01:30:53;;;;;;;0.20;0.20;;;;;;;;;;5051285;28;20426;-63
2021/06/21 01:33:20;;;;;;;0.20;0.20;;;;;;;;;;5041225;28;20624;-63
2021/06/21 01:35:54;;;;;;;0.20;0.20;;;;;;;;;;5051577;28;20417;-63
2021/06/21 01:38:22;;;;;;;0.20;0.20;;;;;;;;;;5051600;28;20426;-63
2021/06/21 01:40:53;;;;;;;0.20;0.20;;;;;;;;;;5051246;28;20431;-63
2021/06/21 01:43:20;;;;;;;0.20;0.20;;;;;;;;;;5051589;28;20738;-63
2021/06/21 01:45:46;;;;;;;0.20;0.20;;;;;;;;;;5051476;28;20413;-63
2021/06/21 01:48:13;;;;;;;0.20;0.20;;;;;;;;;;5051500;28;20924;-63
2021/06/21 01:50:39;;;;;;;0.20;0.20;;;;;;;;;;5051029;28;20989;-63
2021/06/21 01:53:08;;;;;;;0.30;0.30;;;;;;;;;;5051381;28;20810;-63
2021/06/21 01:55:36;;;;;;;0.30;0.30;;;;;;;;;;5051343;28;20171;-63
2021/06/21 01:58:03;;;;;;;0.20;0.20;;;;;;;;;;5051251;28;20415;-63
2021/06/21 02:00:29;;;;;;;0.20;0.20;;;;;;;;;;5051044;28;20427;-63
2021/06/21 02:02:56;;;;;;;0.20;0.20;;;;;;;;;;5051263;28;20414;-63
2021/06/21 02:05:23;;;;;;;0.30;0.30;;;;;;;;;;5051302;28;20817;-63
2021/06/21 02:07:51;;;;;;;0.30;0.30;;;;;;;;;;5051290;28;20383;-63
2021/06/21 02:10:19;;;;;;;0.30;0.30;;;;;;;;;;5050908;28;21154;-63
2021/06/21 02:12:46;;;;;;;0.20;0.20;;;;;;;;;;5051034;28;20441;-64
2021/06/21 02:15:12;;;;;;;0.20;0.20;;;;;;;;;;5051442;28;20934;-61
2021/06/21 02:17:38;;;;;;;0.20;0.20;;;;;;;;;;5051243;28;20769;-61
2021/06/21 02:20:05;;;;;;;0.20;0.20;;;;;;;;;;5051010;28;20430;-63
2021/06/21 02:22:31;;;;;;;0.20;0.20;;;;;;;;;;5053992;28;20413;-62
2021/06/21 02:24:59;;;;;;;0.20;0.20;;;;;;;;;;5054948;28;20417;-62
2021/06/21 02:27:25;;;;;;;0.20;0.20;;;;;;;;;;5055103;28;20410;-63
2021/06/21 02:29:51;;;;;;;0.30;0.30;;;;;;;;;;5036858;28;20444;-62
2021/06/21 02:32:18;;;;;;;0.30;0.30;;;;;;;;;;5054999;28;20782;-63
2021/06/21 02:34:44;;;;;;;0.20;0.20;;;;;;;;;;5054830;28;20460;-63
2021/06/21 02:37:10;;;;;;;0.30;0.30;;;;;;;;;;5054896;28;20488;-63
2021/06/21 02:39:36;;;;;;;0.20;0.20;;;;;;;;;;5054399;28;20413;-62
2021/06/21 02:42:03;;;;;;;0.20;0.20;;;;;;;;;;5054809;28;20491;-62
2021/06/21 02:44:29;;;;;;;0.20;0.20;;;;;;;;;;5054798;28;20495;-63
2021/06/21 02:46:55;;;;;;;0.30;0.30;;;;;;;;;;5054699;28;20426;-63
2021/06/21 02:49:21;;;;;;;0.30;0.30;;;;;;;;;;5054687;28;20419;-64
2021/06/21 02:51:52;;;;;;;0.23;0.23;;;;;;;;;;5055026;28;20424;-63
2021/06/21 02:54:26;;;;;;;0.20;0.20;;;;;;;;;;5054513;28;20458;-63
2021/06/21 02:57:15;;;;;;;0.30;0.30;;;;;;;;;;5054581;28;20441;-62
2021/06/21 02:59:44;;;;;;;0.20;0.20;;;;;;;;;;5054598;28;20810;-63
2021/06/21 03:02:11;;;;;;;0.20;0.20;;;;;;;;;;5054597;28;20405;-63
2021/06/21 03:04:39;;;;;;;0.30;0.30;;;;;;;;;;5054525;28;20406;-63
2021/06/21 03:07:07;;;;;;;0.30;0.30;;;;;;;;;;5054745;28;20407;-63
2021/06/21 03:09:33;;;;;;;0.20;0.20;;;;;;;;;;5054345;28;20786;-63
2021/06/21 03:12:00;;;;;;;0.20;0.20;;;;;;;;;;5054640;28;20450;-63
2021/06/21 03:14:27;;;;;;;0.20;0.20;;;;;;;;;;5054295;28;20495;-63
2021/06/21 03:16:53;;;;;;;0.30;0.30;;;;;;;;;;5054297;28;20420;-63
2021/06/21 03:19:20;;;;;;;0.20;0.20;;;;;;;;;;5053931;28;20452;-63
2021/06/21 03:21:46;;;;;;;0.30;0.30;;;;;;;;;;5054170;28;20458;-63
2021/06/21 03:24:14;;;;;;;0.20;0.20;;;;;;;;;;5054109;28;20873;-63
2021/06/21 03:26:40;;;;;;;0.23;0.23;;;;;;;;;;5054073;28;20413;-63
2021/06/21 03:29:14;;;;;;;0.30;0.30;;;;;;;;;;5055181;28;20428;-64
2021/06/21 03:31:40;;;;;;;0.20;0.20;;;;;;;;;;5053811;28;20426;-63
2021/06/21 03:34:06;;;;;;;0.30;0.30;;;;;;;;;;5053180;28;20883;-63
2021/06/21 03:36:32;;;;;;;0.20;0.20;;;;;;;;;;5053872;28;20442;-63
2021/06/21 03:38:58;;;;;;;0.20;0.20;;;;;;;;;;5053622;28;20411;-63
2021/06/21 03:41:24;;;;;;;0.20;0.20;;;;;;;;;;5053984;28;20422;-63
2021/06/21 03:43:50;;;;;;;0.20;0.20;;;;;;;;;;5053887;28;20520;-63
2021/06/21 03:46:16;;;;;;;0.20;0.20;;;;;;;;;;5053765;28;20414;-63
2021/06/21 03:48:42;;;;;;;0.20;0.20;;;;;;;;;;5053467;28;20433;-63
2021/06/21 03:51:08;;;;;;;0.20;0.20;;;;;;;;;;5053523;28;20446;-63
2021/06/21 03:53:34;;;;;;;0.30;0.30;;;;;;;;;;5053568;28;20482;-63
2021/06/21 03:56:00;;;;;;;0.30;0.30;;;;;;;;;;5053720;28;20510;-63
2021/06/21 03:58:26;;;;;;;0.20;0.20;;;;;;;;;;5053313;28;20410;-63
2021/06/21 04:00:52;;;;;;;0.20;0.20;;;;;;;;;;5053329;28;20401;-63
2021/06/21 04:03:18;;;;;;;0.20;0.20;;;;;;;;;;5053401;28;20468;-64
2021/06/21 04:05:44;;;;;;;0.20;0.20;;;;;;;;;;5034553;28;20921;-63
2021/06/21 04:08:11;;;;;;;0.20;0.20;;;;;;;;;;5052888;28;20417;-63
2021/06/21 04:10:39;;;;;;;0.20;0.20;;;;;;;;;;5052972;28;20812;-64
2021/06/21 04:13:05;;;;;;;0.20;0.20;;;;;;;;;;5053155;28;20485;-63
2021/06/21 04:15:31;;;;;;;0.20;0.20;;;;;;;;;;5053080;28;20398;-63
2021/06/21 04:17:59;;;;;;;0.20;0.20;;;;;;;;;;5053075;28;20402;-64
2021/06/21 04:20:25;;;;;;;0.20;0.20;;;;;;;;;;5052807;28;20797;-64
2021/06/21 04:22:51;;;;;;;0.30;0.30;;;;;;;;;;5052988;28;20407;-63
2021/06/21 04:25:18;;;;;;;0.20;0.20;;;;;;;;;;5053018;28;20775;-63
2021/06/21 04:27:44;;;;;;;0.20;0.20;;;;;;;;;;5052901;28;20409;-63
2021/06/21 04:30:11;;;;;;;0.20;0.20;;;;;;;;;;5052693;28;20571;-63
2021/06/21 04:32:38;;;;;;;0.20;0.20;;;;;;;;;;5052882;28;20434;-63
2021/06/21 04:35:05;;;;;;;0.20;0.20;;;;;;;;;;5052663;28;20468;-63
2021/06/21 04:37:31;;;;;;;0.30;0.30;;;;;;;;;;5052618;28;20403;-63
2021/06/21 04:39:57;;;;;;;0.20;0.20;;;;;;;;;;5052409;28;20789;-63
2021/06/21 04:42:23;;;;;;;0.20;0.20;;;;;;;;;;5052629;28;20395;-63
2021/06/21 04:44:49;;;;;;;0.20;0.20;;;;;;;;;;5052348;28;20416;-63
2021/06/21 04:47:15;;;;;;;0.20;0.20;;;;;;;;;;5052293;28;20411;-63
2021/06/21 04:49:41;;;;;;;0.30;0.30;;;;;;;;;;5052070;28;20423;-64
2021/06/21 04:52:10;;;;;;;0.20;0.20;;;;;;;;;;5052424;28;20841;-63
2021/06/21 04:54:36;;;;;;;0.20;0.20;;;;;;;;;;5052338;28;20465;-64
2021/06/21 04:57:03;;;;;;;0.20;0.20;;;;;;;;;;5052290;28;20497;-64
2021/06/21 04:59:29;;;;;;;0.20;0.20;;;;;;;;;;5034091;28;20507;-64
2021/06/21 05:01:54;;;;;;;0.30;0.30;;;;;;;;;;5045938;28;20881;-63
2021/06/21 05:04:20;;;;;;;0.30;0.30;;;;;;;;;;5034224;28;20527;-63
2021/06/21 05:06:46;;;;;;;0.20;0.20;;;;;;;;;;5048907;28;20458;-64
2021/06/21 05:09:12;;;;;;;0.20;0.20;;;;;;;;;;5041798;28;20431;-63
2021/06/21 05:11:39;;;;;;;0.30;0.30;;;;;;;;;;5031358;28;20438;-63
2021/06/21 05:14:05;;;;;;;0.20;0.20;;;;;;;;;;5031928;28;20426;-63
2021/06/21 05:16:31;;;;;;;0.30;0.30;;;;;;;;;;5045018;28;20478;-63
2021/06/21 05:18:57;;;;;;;0.20;0.20;;;;;;;;;;5071736;28;20874;-64
2021/06/21 05:21:23;;;;;;;0.30;0.30;;;;;;;;;;5064547;28;20426;-64
2021/06/21 05:23:49;;;;;;;0.20;0.20;;;;;;;;;;5051996;28;20422;-64
2021/06/21 05:26:15;;;;;;;0.20;0.20;;;;;;;;;;5047153;28;20427;-64
2021/06/21 05:28:41;;;;;;;0.30;0.30;;;;;;;;;;5046058;28;20415;-64
2021/06/21 05:31:07;;;;;;;0.30;0.30;;;;;;;;;;5051657;28;20464;-63
2021/06/21 05:33:33;;;;;;;0.30;0.30;;;;;;;;;;5049745;28;20470;-63
2021/06/21 05:35:59;;;;;;;0.20;0.20;;;;;;;;;;5046912;28;20739;-63
2021/06/21 05:38:25;;;;;;;0.20;0.20;;;;;;;;;;5031655;28;20415;-63
2021/06/21 05:40:51;;;;;;;0.30;0.30;;;;;;;;;;5034296;28;20449;-63
2021/06/21 05:43:17;;;;;;;0.20;0.20;;;;;;;;;;5051606;28;20407;-63
2021/06/21 05:45:43;;;;;;;0.20;0.20;;;;;;;;;;5049905;28;20418;-63
2021/06/21 05:48:09;;;;;;;0.20;0.20;;;;;;;;;;5050875;28;20487;-63
2021/06/21 05:50:37;;;;;;;0.40;0.40;;;;;;;;;;5043408;28;21062;-64
2021/06/21 05:53:04;;;;;;;0.20;0.20;;;;;;;;;;5051014;28;20454;-64
2021/06/21 05:55:30;;;;;;;0.20;0.20;;;;;;;;;;5049332;28;20397;-64
2021/06/21 05:57:56;;;;;;;0.30;0.30;;;;;;;;;;5050405;28;20892;-64
2021/06/21 06:00:22;;;;;;;0.30;0.30;;;;;;;;;;5050261;28;20765;-64
2021/06/21 06:02:48;;;;;;;0.30;0.30;;;;;;;;;;5050076;28;20423;-63
2021/06/21 06:05:15;;;;;;;0.20;0.20;;;;;;;;;;5054458;28;20428;-62
2021/06/21 06:07:41;;;;;;;0.20;0.20;;;;;;;;;;5054386;28;20795;-63
2021/06/21 06:10:08;;;;;;;0.20;0.20;;;;;;;;;;5051817;28;20426;-63
2021/06/21 06:12:34;;;;;;;0.20;0.20;;;;;;;;;;5050755;28;20381;-63
2021/06/21 06:15:00;;;;;;;0.20;0.20;;;;;;;;;;5051172;28;20466;-64
2021/06/21 06:17:27;;;;;;;0.20;0.20;;;;;;;;;;5050955;28;20464;-63
2021/06/21 06:19:53;;;;;;;0.20;0.20;;;;;;;;;;5050606;28;20470;-64
2021/06/21 06:22:19;;;;;;;0.20;0.20;;;;;;;;;;5051077;28;20403;-64
2021/06/21 06:24:45;;;;;;;0.20;0.20;;;;;;;;;;5050834;28;20392;-64
2021/06/21 06:27:11;;;;;;;0.20;0.20;;;;;;;;;;5050837;28;20442;-64
2021/06/21 06:29:37;;;;;;;0.20;0.20;;;;;;;;;;5050586;28;20472;-63
2021/06/21 06:32:03;;;;;;;0.20;0.20;;;;;;;;;;5050826;28;20414;-63
2021/06/21 06:34:29;;;;;;;0.20;0.20;;;;;;;;;;5050757;28;20555;-61
2021/06/21 06:36:55;;;;;;;0.20;0.20;;;;;;;;;;5050974;28;20409;-64
2021/06/21 06:39:22;;;;;;;0.20;0.20;;;;;;;;;;5050578;28;20413;-64
2021/06/21 06:41:48;;;;;;;0.20;0.20;;;;;;;;;;5050638;28;20392;-63
2021/06/21 06:44:14;;;;;;;0.20;0.20;;;;;;;;;;5050654;28;20417;-64
2021/06/21 06:46:40;;;;;;;0.20;0.20;;;;;;;;;;5050355;28;20406;-64
2021/06/21 06:49:07;;;;;;;0.20;0.20;;;;;;;;;;5050310;28;20381;-64
2021/06/21 06:51:41;;;;;;;0.20;0.20;;;;;;;;;;5050500;28;21017;-64
2021/06/21 06:57:02;;;;;;;0.20;0.20;;;;;;;;;;5050745;28;20381;-63
2021/06/21 06:59:38;;;;;;;0.20;0.20;;;;;;;;;;5050503;28;20381;-64
2021/06/21 07:02:05;;;;;;;0.20;0.20;;;;;;;;;;5050024;28;20409;-64
2021/06/21 07:04:31;;;;;;;0.20;0.20;;;;;;;;;;5050290;28;20434;-64
2021/06/21 07:07:00;;;;;;;0.20;0.20;;;;;;;;;;5050309;28;20381;-64
2021/06/21 07:09:29;;;;;;;0.20;0.20;;;;;;;;;;5052321;28;20468;-64
2021/06/21 07:11:55;;;;;;;0.30;0.30;;;;;;;;;;5053892;28;20409;-64
2021/06/21 07:14:21;;;;;;;0.20;0.20;;;;;;;;;;5053785;28;20458;-63
2021/06/21 07:16:48;;;;;;;0.20;0.20;;;;;;;;;;5053474;28;20406;-64
2021/06/21 07:19:14;;;;;;;0.20;0.20;;;;;;;;;;5053314;28;20421;-64
2021/06/21 07:21:41;;;;;;;0.20;0.20;;;;;;;;;;5053537;28;20444;-64
2021/06/21 07:24:08;;;;;;;0.20;0.20;;;;;;;;;;5053754;28;20410;-64
2021/06/21 07:26:34;;;;;;;0.30;0.30;;;;;;;;;;5053657;28;20406;-64
2021/06/21 07:29:00;;;;;;;0.20;0.20;;;;;;;;;;5053368;28;20528;-64
2021/06/21 07:31:26;;;;;;;0.20;0.20;;;;;;;;;;5053349;28;20939;-64
2021/06/21 07:33:52;;;;;;;0.20;0.20;;;;;;;;;;5053233;28;20462;-64
2021/06/21 07:36:18;;;;;;;0.20;0.20;;;;;;;;;;5053359;28;20452;-64
2021/06/21 07:38:44;;;;;;;0.20;0.20;;;;;;;;;;5052900;28;20398;-64
2021/06/21 07:41:11;;;;;;;0.20;0.20;;;;;;;;;;5052467;28;20475;-64
2021/06/21 07:43:37;;;;;;;0.20;0.20;;;;;;;;;;5053344;28;20399;-64
2021/06/21 07:46:04;;;;;;;0.20;0.20;;;;;;;;;;5052066;28;20831;-64
2021/06/21 07:48:30;;;;;;;0.20;0.20;;;;;;;;;;5053307;28;20395;-64
2021/06/21 07:50:56;;;;;;;0.20;0.20;;;;;;;;;;5052847;28;20453;-64
2021/06/21 07:53:22;;;;;;;0.20;0.20;;;;;;;;;;5053280;28;20481;-64
2021/06/21 07:55:48;;;;;;;0.20;0.20;;;;;;;;;;5053278;28;20395;-64
2021/06/21 07:58:14;;;;;;;0.20;0.20;;;;;;;;;;5053305;28;20883;-64
2021/06/21 08:00:40;;;;;;;0.20;0.20;;;;;;;;;;5053077;28;20461;-64
2021/06/21 08:03:10;;;;;;;0.20;0.20;;;;;;;;;;5053343;28;20957;-64
2021/06/21 08:05:36;;;;;;;0.20;0.20;;;;;;;;;;5053206;28;20404;-64
2021/06/21 08:08:02;;;;;;;0.20;0.20;;;;;;;;;;5053133;28;20385;-64
2021/06/21 08:10:28;;;;;;;0.20;0.20;;;;;;;;;;5052798;28;20440;-64
2021/06/21 08:12:54;;;;;;;0.20;0.20;;;;;;;;;;5052988;28;20413;-64
2021/06/21 08:15:20;;;;;;;0.20;0.20;;;;;;;;;;5052009;28;21058;-65
2021/06/21 08:17:46;;;;;;;0.20;0.20;;;;;;;;;;5052852;28;20403;-64
2021/06/21 08:20:13;;;;;;;0.20;0.20;;;;;;;;;;5052224;28;20439;-64
2021/06/21 08:22:39;;;;;;;0.20;0.20;;;;;;;;;;5052549;28;20425;-64
2021/06/21 08:25:06;;;;;;;0.20;0.20;;;;;;;;;;5052781;28;20791;-64
2021/06/21 08:27:32;;;;;;;0.20;0.20;;;;;;;;;;5052745;28;20464;-64
2021/06/21 08:29:59;;;;;;;0.20;0.20;;;;;;;;;;5052331;28;20439;-64
2021/06/21 08:32:25;;;;;;;0.20;0.20;;;;;;;;;;5052781;28;20738;-63
2021/06/21 08:34:51;;;;;;;0.20;0.20;;;;;;;;;;5052564;28;20455;-64
2021/06/21 08:37:20;;;;;;;0.20;0.20;;;;;;;;;;5052469;28;20407;-64
2021/06/21 08:39:46;;;;;;;0.20;0.20;;;;;;;;;;5052243;28;20808;-64
2021/06/21 08:42:12;;;;;;;0.20;0.20;;;;;;;;;;5052420;28;20390;-64
2021/06/21 08:44:41;;;;;;;0.20;0.20;;;;;;;;;;5052257;28;21006;-64
2021/06/21 08:47:07;;;;;;;0.20;0.20;;;;;;;;;;5052270;28;20406;-63
2021/06/21 08:49:35;;;;;;;0.20;0.20;;;;;;;;;;5051872;28;20498;-62
2021/06/21 08:52:07;;;;;;;0.20;0.20;;;;;;;;;;5052207;28;20459;-63
2021/06/21 08:54:33;;;;;;;0.20;0.20;;;;;;;;;;5051748;28;20496;-63
2021/06/21 08:56:59;;;;;;;0.20;0.20;;;;;;;;;;5051940;28;20402;-63
2021/06/21 08:59:25;;;;;;;0.20;0.20;;;;;;;;;;5051827;28;20407;-63
2021/06/21 09:01:51;;;;;;;0.20;0.20;;;;;;;;;;5051897;28;20491;-63
2021/06/21 09:04:17;;;;;;;0.20;0.20;;;;;;;;;;5052235;28;20444;-63
2021/06/21 09:06:43;;;;;;;0.20;0.20;;;;;;;;;;5052100;28;20438;-63
2021/06/21 09:09:10;;;;;;;0.20;0.20;;;;;;;;;;5051666;28;20421;-63
2021/06/21 09:11:45;;;;;;;0.20;0.20;;;;;;;;;;5051658;28;20545;-63
2021/06/21 09:14:29;;;;;;;0.20;0.20;;;;;;;;;;5051658;28;20457;-63
2021/06/21 09:17:01;;;;;;;0.20;0.20;;;;;;;;;;5051810;28;20403;-63
2021/06/21 09:19:28;;;;;;;0.20;0.20;;;;;;;;;;5033614;28;20417;-63
2021/06/21 09:21:54;;;;;;;0.20;0.20;;;;;;;;;;5051594;28;20916;-63
2021/06/21 09:24:22;;;;;;;0.20;0.20;;;;;;;;;;5051395;28;20423;-63
2021/06/21 09:26:49;;;;;;;0.20;0.20;;;;;;;;;;5051127;28;20416;-63
2021/06/21 09:29:15;;;;;;;0.20;0.20;;;;;;;;;;5051279;28;20416;-63
2021/06/21 09:31:55;;;;;;;0.20;0.20;;;;;;;;;;5050703;28;20429;-63
2021/06/21 09:34:22;;;;;;;0.20;0.20;;;;;;;;;;5051463;28;20527;-63
2021/06/21 09:36:48;;;;;;;0.20;0.20;;;;;;;;;;5051295;28;20852;-63
2021/06/21 09:39:19;;;;;;;0.20;0.20;;;;;;;;;;5051158;28;20402;-64
2021/06/21 09:42:02;;;;;;;0.20;0.20;;;;;;;;;;5051328;28;20426;-63
2021/06/21 09:44:32;;;;;;;0.20;0.20;;;;;;;;;;5051363;28;20407;-64
2021/06/21 09:47:12;;;;;;;0.10;0.10;;;;;;;;;;5051289;28;20902;-63
2021/06/21 09:49:38;;;;;;;0.20;0.20;;;;;;;;;;5050916;28;20413;-63
2021/06/21 09:52:04;;;;;;;0.20;0.20;;;;;;;;;;5051138;28;20414;-63
2021/06/21 09:54:33;;;;;;;0.20;0.20;;;;;;;;;;5051040;28;20504;-63
2021/06/21 09:57:11;;;;;;;0.20;0.20;;;;;;;;;;5050842;28;20418;-63
2021/06/21 09:59:46;;;;;;;0.20;0.20;;;;;;;;;;5050419;28;20429;-64
2021/06/21 10:02:18;;;;;;;0.20;0.20;;;;;;;;;;5051182;28;20465;-64
2021/06/21 10:04:44;;;;;;;0.20;0.20;;;;;;;;;;5051211;28;20409;-63
2021/06/21 10:07:30;;;;;;;0.20;0.20;;;;;;;;;;5050997;28;20465;-63
2021/06/21 10:09:58;;;;;;;0.20;0.20;;;;;;;;;;5050695;28;20432;-63
2021/06/21 10:12:24;;;;;;;0.20;0.20;;;;;;;;;;5051253;28;20411;-63
2021/06/21 10:14:51;;;;;;;0.20;0.20;;;;;;;;;;5051010;28;20823;-63
2021/06/21 10:17:17;;;;;;;0.20;0.20;;;;;;;;;;5051065;28;20920;-63
2021/06/21 10:19:43;;;;;;;0.20;0.20;;;;;;;;;;5050766;28;20423;-64
2021/06/21 10:22:09;;;;;;;0.20;0.20;;;;;;;;;;5050927;28;20485;-64
2021/06/21 10:24:36;;;;;;;0.20;0.20;;;;;;;;;;5050826;28;20417;-63
2021/06/21 10:27:05;;;;;;;0.20;0.20;;;;;;;;;;5050835;28;20472;-63
2021/06/21 10:29:31;;;;;;;0.20;0.20;;;;;;;;;;5050498;28;20407;-63
2021/06/21 10:31:58;;;;;;;0.20;0.20;;;;;;;;;;5050658;28;20453;-63
2021/06/21 10:34:25;;;;;;;0.20;0.20;;;;;;;;;;5050731;28;20507;-63
2021/06/21 10:36:56;;;;;;;0.20;0.20;;;;;;;;;;5050735;28;20418;-64
2021/06/21 10:39:34;;;;;;;0.20;0.20;;;;;;;;;;5050872;28;20418;-64
2021/06/21 10:42:10;;;;;;;0.20;0.20;;;;;;;;;;5051023;28;20407;-64
2021/06/21 10:44:42;;;;;;;0.20;0.20;;;;;;;;;;5054479;28;20406;-64
2021/06/21 10:47:41;;;;;;;0.10;0.10;;;;;;;;;;5054586;28;20535;-64
2021/06/21 10:50:13;;;;;;;0.20;0.20;;;;;;;;;;5031070;28;20458;-64
2021/06/21 10:52:40;;;;;;;0.20;0.20;;;;;;;;;;5054449;28;20406;-64
2021/06/21 10:55:22;;;;;;;0.20;0.20;;;;;;;;;;5054416;28;20454;-66
2021/06/21 10:58:06;;;;;;;0.20;0.20;;;;;;;;;;5054295;28;20403;-65
2021/06/21 11:00:37;;;;;;;0.20;0.20;;;;;;;;;;5054029;28;20426;-63
2021/06/21 11:03:04;;;;;;;0.20;0.20;;;;;;;;;;5053996;28;20418;-63
2021/06/21 11:05:33;;;;;;;0.20;0.20;;;;;;;;;;5054360;28;20402;-63
2021/06/21 11:08:12;;;;;;;0.20;0.20;;;;;;;;;;5054188;28;20774;-63
2021/06/21 11:10:38;;;;;;;0.20;0.20;;;;;;;;;;5053832;28;20426;-63
2021/06/21 11:13:24;;;;;;;0.20;0.20;;;;;;;;;;5053929;28;20716;-63
2021/06/21 11:16:09;;;;;;;0.20;0.20;;;;;;;;;;5053863;28;20414;-63
2021/06/21 11:18:35;;;;;;;0.20;0.20;;;;;;;;;;5053626;28;20402;-63
2021/06/21 11:21:12;;;;;;;0.20;0.20;;;;;;;;;;5053870;28;20418;-63
2021/06/21 11:23:39;;;;;;;0.20;0.20;;;;;;;;;;5052458;28;20409;-64
2021/06/21 11:26:05;;;;;;;0.20;0.20;;;;;;;;;;5051882;28;20950;-64
2021/06/21 11:28:41;;;;;;;0.20;0.20;;;;;;;;;;5052268;28;20485;-64
2021/06/21 11:31:26;;;;;;;0.20;0.20;;;;;;;;;;5053486;28;20426;-64
2021/06/21 11:33:52;;;;;;;0.20;0.20;;;;;;;;;;5053549;28;21046;-63
2021/06/21 11:36:37;;;;;;;0.20;0.20;;;;;;;;;;5053379;28;20449;-63
2021/06/21 11:39:23;;;;;;;0.20;0.20;;;;;;;;;;5053294;28;20440;-63
2021/06/21 11:42:00;;;;;;;0.20;0.20;;;;;;;;;;5053390;28;20499;-63
2021/06/21 11:44:48;;;;;;;0.20;0.20;;;;;;;;;;5053635;28;20411;-62
2021/06/21 11:47:18;;;;;;;0.20;0.20;;;;;;;;;;5053577;28;20927;-62
2021/06/21 11:49:45;;;;;;;0.20;0.20;;;;;;;;;;5053005;28;20484;-63
2021/06/21 11:52:12;;;;;;;0.20;0.20;;;;;;;;;;5090899;22;20548;-65
2021/06/21 11:54:40;;;;;;;0.20;0.20;;;;;;;;;;5072164;28;20433;-66
2021/06/21 11:57:06;;;;;;;0.20;0.20;;;;;;;;;;5073234;28;20400;-63
2021/06/21 11:59:39;;;;;;;0.20;0.20;;;;;;;;;;5072914;28;20407;-66
2021/06/21 12:02:07;;;;;;;0.20;0.20;;;;;;;;;;5073502;28;20425;-65
2021/06/21 12:04:34;;;;;;;0.20;0.20;;;;;;;;;;5073136;28;20893;-65
2021/06/21 12:07:00;;;;;;;0.20;0.20;;;;;;;;;;5072840;28;20923;-65
2021/06/21 12:09:26;;;;;;;0.20;0.20;;;;;;;;;;5072908;28;20470;-65
2021/06/21 12:11:53;;;;;;;0.20;0.20;;;;;;;;;;5072862;28;20946;-64
2021/06/21 12:14:23;;;;;;;0.20;0.20;;;;;;;;;;5072815;28;20827;-65
2021/06/21 12:16:50;;;;;;;0.20;0.20;;;;;;;;;;5072806;28;20459;-67
2021/06/21 12:19:16;;;;;;;0.20;0.20;;;;;;;;;;5072529;28;20397;-64
2021/06/21 12:21:43;;;;;;;0.20;0.20;;;;;;;;;;5072689;28;20425;-66
2021/06/21 12:24:22;;;;;;;0.20;0.20;;;;;;;;;;5071462;28;20480;-66
2021/06/21 12:26:49;;;;;;;0.20;0.20;;;;;;;;;;5072521;28;20415;-66
2021/06/21 12:29:19;;;;;;;0.20;0.20;;;;;;;;;;5072522;28;20769;-66
2021/06/21 12:31:54;;;;;;;0.20;0.20;;;;;;;;;;5072633;28;20538;-66
2021/06/21 12:34:38;;;;;;;0.20;0.20;;;;;;;;;;5072451;28;20461;-66
2021/06/21 12:37:42;;;;;;;0.20;0.20;;;;;;;;;;5072464;28;20411;-66
2021/06/21 12:40:16;;;;;;;0.20;0.20;;;;;;;;;;5009864;28;20401;-66
2021/06/21 12:42:43;;;;;;;0.20;0.20;;;;;;;;;;5010401;28;20884;-66
2021/06/21 12:45:12;;;;;;;0.20;0.20;;;;;;;;;;5043246;28;20911;-66
2021/06/21 12:47:42;;;;;;;0.20;0.20;;;;;;;;;;5072202;28;20400;-66
2021/06/21 12:50:08;;;;;;;0.20;0.20;;;;;;;;;;5071971;28;20874;-66
2021/06/21 12:52:35;;;;;;;0.20;0.20;;;;;;;;;;5070931;28;20868;-67
2021/06/21 12:55:06;;;;;;;0.20;0.20;;;;;;;;;;5070671;28;20488;-66
2021/06/21 12:57:44;;;;;;;0.20;0.20;;;;;;;;;;5072149;28;20406;-66
2021/06/21 13:00:11;;;;;;;0.20;0.20;;;;;;;;;;5071698;28;20409;-67
2021/06/21 13:02:37;;;;;;;0.20;0.20;;;;;;;;;;5071957;28;20402;-66
2021/06/21 13:05:04;;;;;;;0.20;0.20;;;;;;;;;;5071954;28;20420;-66
2021/06/21 13:07:31;;;;;;;0.20;0.20;;;;;;;;;;5071822;28;20416;-66
2021/06/21 13:09:58;;;;;;;0.20;0.20;;;;;;;;;;5071590;28;20382;-65
2021/06/21 13:12:28;;;;;;;0.20;0.20;;;;;;;;;;5071419;28;20515;-67
2021/06/21 13:15:06;;;;;;;0.20;0.20;;;;;;;;;;5071876;28;20461;-65
2021/06/21 13:17:32;;;;;;;0.20;0.20;;;;;;;;;;5071916;28;20543;-66
2021/06/21 13:20:00;;;;;;;0.20;0.20;;;;;;;;;;5071548;28;20485;-66
2021/06/21 13:22:32;;;;;;;0.20;0.20;;;;;;;;;;5071614;28;20487;-65
2021/06/21 13:25:00;;;;;;;0.20;0.20;;;;;;;;;;5071602;28;20407;-66
2021/06/21 13:27:27;;;;;;;0.20;0.20;;;;;;;;;;5070412;28;20957;-66
2021/06/21 13:29:54;;;;;;;0.20;0.20;;;;;;;;;;5071380;28;20905;-66
2021/06/21 13:32:21;;;;;;;0.20;0.20;;;;;;;;;;5071401;28;20418;-66
2021/06/21 13:34:49;;;;;;;0.20;0.20;;;;;;;;;;5071473;28;20485;-67
2021/06/21 13:37:31;;;;;;;0.20;0.20;;;;;;;;;;5071438;28;20542;-66
2021/06/21 13:40:00;;;;;;;0.20;0.20;;;;;;;;;;5071447;28;21059;-66
2021/06/21 13:42:37;;;;;;;0.20;0.20;;;;;;;;;;5071501;28;20404;-66
2021/06/21 13:45:19;;;;;;;0.20;0.20;;;;;;;;;;5071251;28;20391;-66
2021/06/21 13:47:46;;;;;;;0.20;0.20;;;;;;;;;;5071387;28;20885;-66
2021/06/21 13:50:13;;;;;;;0.20;0.20;;;;;;;;;;5070875;28;20420;-65
2021/06/21 13:52:40;;;;;;;0.20;0.20;;;;;;;;;;5071395;28;20414;-65
2021/06/21 13:55:08;;;;;;;0.20;0.20;;;;;;;;;;5072057;28;20558;-66
2021/06/21 13:57:42;;;;;;;0.20;0.20;;;;;;;;;;5081205;28;20390;-66
2021/06/21 14:00:09;;;;;;;0.20;0.20;;;;;;;;;;5079113;28;20890;-67
2021/06/21 14:02:39;;;;;;;0.20;0.20;;;;;;;;;;5074263;28;20477;-66
2021/06/21 14:05:06;;;;;;;0.20;0.20;;;;;;;;;;5070630;28;20409;-66
2021/06/21 14:07:32;;;;;;;0.20;0.20;;;;;;;;;;5071450;28;20739;-65
2021/06/21 14:09:59;;;;;;;0.20;0.20;;;;;;;;;;5070937;28;20774;-65
2021/06/21 14:12:25;;;;;;;0.20;0.20;;;;;;;;;;5070986;28;20604;-65
2021/06/21 14:14:52;;;;;;;0.20;0.20;;;;;;;;;;5071134;28;20458;-65
2021/06/21 14:17:21;;;;;;;0.20;0.20;;;;;;;;;;5071503;28;20494;-66
2021/06/21 14:19:47;;;;;;;0.20;0.20;;;;;;;;;;5075051;28;20376;-66
2021/06/21 14:22:13;;;;;;;0.20;0.20;;;;;;;;;;5075025;28;20429;-64
2021/06/21 14:24:39;;;;;;;0.20;0.20;;;;;;;;;;5075154;28;20401;-65
2021/06/21 14:27:06;;;;;;;0.20;0.20;;;;;;;;;;5075153;28;20492;-66
2021/06/21 14:29:32;;;;;;;0.20;0.20;;;;;;;;;;5074542;28;20436;-64
2021/06/21 14:31:58;;;;;;;0.20;0.20;;;;;;;;;;5074730;28;20768;-68
2021/06/21 14:34:24;;;;;;;0.20;0.20;;;;;;;;;;5074581;28;20967;-66
2021/06/21 14:36:50;;;;;;;0.20;0.20;;;;;;;;;;5074707;28;20387;-67
2021/06/21 14:39:16;;;;;;;0.20;0.20;;;;;;;;;;5074417;28;20405;-67
2021/06/21 14:41:42;;;;;;;0.20;0.20;;;;;;;;;;5074725;28;20425;-66
2021/06/21 14:44:08;;;;;;;0.20;0.20;;;;;;;;;;5074529;28;20405;-66
2021/06/21 14:46:34;;;;;;;0.20;0.20;;;;;;;;;;5074538;28;20417;-66
2021/06/21 14:49:01;;;;;;;0.20;0.20;;;;;;;;;;5073918;28;20410;-66
2021/06/21 14:51:27;;;;;;;0.20;0.20;;;;;;;;;;5074186;28;20449;-67
2021/06/21 14:53:53;;;;;;;0.20;0.20;;;;;;;;;;5074347;28;21000;-65